Time;durP1;ratioP1;P1;durP2;ratioP2;P2;SDS_P1;SDS_P2;PMS_P1;PMS_P2;Temp;Humidity;BMP_temperature;BMP_pressure;BME280_temperature;BME280_humidity;BME280_pressure;Samples;Min_cycle;Max_cycle;Signal;HPM_P1;HPM_P2
2021/09/05 00:00:22;;;;;;;8.43;5.93;;;;;;;18.66;66.31;100413.69;5001196;28;20400;-78
2021/09/05 00:02:47;;;;;;;13.63;6.43;;;;;;;18.70;66.30;100419.38;5018648;28;20403;-75
2021/09/05 00:05:13;;;;;;;8.30;6.13;;;;;;;18.69;66.34;100413.06;4996981;28;20500;-78
2021/09/05 00:07:38;;;;;;;6.67;6.10;;;;;;;18.73;66.28;100416.03;4982995;28;20766;-77
2021/09/05 00:10:04;;;;;;;8.07;5.90;;;;;;;18.71;66.11;100415.50;4995310;28;20778;-75
2021/09/05 00:12:29;;;;;;;7.70;6.63;;;;;;;18.67;66.39;100409.84;4996210;28;20457;-78
2021/09/05 00:14:54;;;;;;;8.70;5.93;;;;;;;18.67;66.12;100417.25;4995052;28;20882;-78
2021/09/05 00:17:19;;;;;;;8.23;6.27;;;;;;;18.66;66.10;100408.19;4996110;28;20403;-78
2021/09/05 00:19:45;;;;;;;6.07;5.47;;;;;;;18.65;65.95;100409.28;5005720;28;20407;-78
2021/09/05 00:22:10;;;;;;;6.80;6.20;;;;;;;18.64;66.43;100413.16;5002580;28;20760;-78
2021/09/05 00:24:35;;;;;;;6.87;6.10;;;;;;;18.64;66.43;100416.72;5001431;28;20432;-77
2021/09/05 00:27:01;;;;;;;7.30;6.53;;;;;;;18.62;66.70;100415.38;4994731;28;20426;-76
2021/09/05 00:29:26;;;;;;;8.20;6.43;;;;;;;18.63;67.27;100422.53;5026695;28;20449;-77
2021/09/05 00:31:52;;;;;;;7.90;6.97;;;;;;;18.60;68.44;100423.94;4998500;28;20457;-77
2021/09/05 00:34:18;;;;;;;9.50;7.93;;;;;;;18.59;69.02;100419.56;4995659;28;20422;-77
2021/09/05 00:36:43;;;;;;;8.40;7.70;;;;;;;18.59;69.13;100414.06;4996917;28;20418;-78
2021/09/05 00:39:09;;;;;;;10.40;8.37;;;;;;;18.62;69.55;100418.94;4994817;28;20405;-78
2021/09/05 00:41:34;;;;;;;8.73;8.02;;;;;;;18.64;69.81;100422.19;5002686;28;20773;-78
2021/09/05 00:44:01;;;;;;;9.10;8.20;;;;;;;18.65;69.97;100414.78;5004451;28;20401;-78
2021/09/05 00:46:26;;;;;;;11.68;8.23;;;;;;;18.65;70.43;100415.59;5019554;28;20413;-78
2021/09/05 00:48:52;;;;;;;9.50;8.00;;;;;;;18.67;70.48;100420.00;4998014;28;20449;-77
2021/09/05 00:51:17;;;;;;;8.17;7.37;;;;;;;18.67;70.51;100417.25;5002587;28;20445;-78
2021/09/05 00:53:44;;;;;;;9.43;8.00;;;;;;;18.63;70.79;100422.53;5005383;28;20393;-78
2021/09/05 00:56:09;;;;;;;9.38;8.38;;;;;;;18.62;70.85;100426.38;4995332;28;20406;-79
2021/09/05 00:58:36;;;;;;;9.80;8.80;;;;;;;18.61;70.91;100428.28;5010318;28;20911;-77
2021/09/05 01:01:01;;;;;;;9.10;8.20;;;;;;;18.60;70.77;100423.13;4993571;28;20421;-78
2021/09/05 01:03:26;;;;;;;9.40;8.50;;;;;;;18.58;70.75;100431.63;4994136;28;20395;-78
2021/09/05 01:05:52;;;;;;;10.87;8.50;;;;;;;18.55;70.88;100429.50;4999873;28;20819;-75
2021/09/05 01:08:17;;;;;;;9.20;8.40;;;;;;;18.53;70.83;100428.97;4994523;28;20428;-78
2021/09/05 01:10:42;;;;;;;10.27;8.73;;;;;;;18.50;70.88;100431.50;5008894;28;20456;-78
2021/09/05 01:13:08;;;;;;;9.30;7.83;;;;;;;18.48;70.94;100436.44;5008102;28;20433;-78
2021/09/05 01:15:33;;;;;;;8.43;7.23;;;;;;;18.44;70.51;100433.47;5001168;28;20549;-78
2021/09/05 01:17:58;;;;;;;8.87;8.07;;;;;;;18.46;70.34;100420.28;5009641;28;20757;-78
2021/09/05 01:20:24;;;;;;;8.90;8.10;;;;;;;18.48;69.95;100422.69;5009512;28;20406;-78
2021/09/05 01:22:49;;;;;;;12.02;8.63;;;;;;;18.45;69.96;100417.81;5005577;28;20396;-78
2021/09/05 01:25:14;;;;;;;10.53;8.77;;;;;;;18.45;69.78;100428.78;5017124;28;20430;-77
2021/09/05 01:27:39;;;;;;;9.50;8.60;;;;;;;18.41;69.72;100427.75;5003819;28;20425;-78
2021/09/05 01:30:05;;;;;;;9.27;8.17;;;;;;;18.37;69.51;100437.72;5011459;28;20901;-77
2021/09/05 01:32:30;;;;;;;8.95;8.07;;;;;;;18.32;69.26;100443.25;5008951;28;20405;-77
2021/09/05 01:34:57;;;;;;;11.60;7.63;;;;;;;18.28;69.20;100440.28;5000330;28;20426;-77
2021/09/05 01:37:22;;;;;;;7.15;6.53;;;;;;;18.28;67.99;100448.50;5005382;28;20397;-77
2021/09/05 01:39:47;;;;;;;9.27;6.57;;;;;;;18.21;67.26;100439.03;4996225;28;20959;-77
2021/09/05 01:42:13;;;;;;;9.10;7.28;;;;;;;18.14;67.00;100444.91;4993544;28;20491;-77
2021/09/05 01:44:38;;;;;;;8.40;6.47;;;;;;;18.07;66.95;100449.91;4995036;28;20432;-77
2021/09/05 01:47:03;;;;;;;10.40;7.20;;;;;;;18.01;67.19;100446.41;4996635;28;20411;-77
2021/09/05 01:49:29;;;;;;;11.82;8.63;;;;;;;17.98;67.39;100441.50;5007470;28;20504;-76
2021/09/05 01:51:54;;;;;;;14.57;8.00;;;;;;;17.96;67.57;100451.16;5007672;28;20493;-77
2021/09/05 01:54:19;;;;;;;13.33;8.30;;;;;;;17.92;67.64;100450.91;5009329;28;20493;-77
2021/09/05 01:56:44;;;;;;;14.60;8.97;;;;;;;17.88;68.14;100452.59;4991768;28;20429;-77
2021/09/05 01:59:10;;;;;;;10.50;8.83;;;;;;;17.85;68.36;100449.66;4993617;28;20429;-77
2021/09/05 02:01:35;;;;;;;10.50;8.40;;;;;;;17.78;68.25;100461.00;5000503;28;20833;-77
2021/09/05 02:04:02;;;;;;;11.10;8.30;;;;;;;17.65;69.02;100455.38;5006989;28;20417;-77
2021/09/05 02:06:28;;;;;;;11.40;9.13;;;;;;;17.64;69.04;100460.03;5000569;28;20452;-77
2021/09/05 02:08:55;;;;;;;9.60;8.65;;;;;;;17.62;69.10;100454.84;4993028;28;20427;-77
2021/09/05 02:11:20;;;;;;;11.27;8.67;;;;;;;17.62;69.23;100460.31;4997300;28;20914;-77
2021/09/05 02:13:46;;;;;;;11.40;8.60;;;;;;;17.63;69.34;100464.69;4992955;28;20398;-77
2021/09/05 02:16:13;;;;;;;12.93;8.73;;;;;;;17.65;69.39;100463.59;5017326;28;20410;-77
2021/09/05 02:18:38;;;;;;;12.60;9.17;;;;;;;17.66;69.64;100462.47;4999756;28;20762;-76
2021/09/05 02:21:03;;;;;;;11.27;8.77;;;;;;;17.68;69.44;100466.59;4994363;28;20383;-77
2021/09/05 02:23:28;;;;;;;12.33;9.07;;;;;;;17.69;69.68;100465.44;5006394;28;20409;-77
2021/09/05 02:25:54;;;;;;;11.93;9.53;;;;;;;17.71;69.78;100468.75;4992919;28;20540;-77
2021/09/05 02:28:19;;;;;;;10.60;9.03;;;;;;;17.71;70.00;100459.69;5007607;28;20425;-77
2021/09/05 02:30:44;;;;;;;10.90;8.80;;;;;;;17.72;70.02;100464.88;5008170;28;20395;-77
2021/09/05 02:33:10;;;;;;;9.67;8.77;;;;;;;17.73;70.17;100463.78;4992731;28;20410;-77
2021/09/05 02:35:35;;;;;;;9.90;9.00;;;;;;;17.73;69.98;100476.66;4994149;28;20489;-77
2021/09/05 02:38:00;;;;;;;11.20;9.53;;;;;;;17.71;70.04;100476.13;5016441;28;20402;-77
2021/09/05 02:40:26;;;;;;;10.83;9.73;;;;;;;17.73;70.07;100477.47;4992455;28;20507;-77
2021/09/05 02:42:51;;;;;;;10.63;9.53;;;;;;;17.73;69.93;100476.66;4992430;28;20409;-77
2021/09/05 02:45:17;;;;;;;15.73;9.90;;;;;;;17.69;70.38;100478.34;4991936;28;20414;-77
2021/09/05 02:47:42;;;;;;;12.07;9.53;;;;;;;17.68;70.20;100473.97;5003124;28;20499;-77
2021/09/05 02:50:08;;;;;;;11.87;10.03;;;;;;;17.68;70.25;100466.59;4995184;28;20956;-77
2021/09/05 02:52:34;;;;;;;10.83;9.73;;;;;;;17.69;70.39;100472.84;5005612;28;20420;-77
2021/09/05 02:55:00;;;;;;;11.70;9.90;;;;;;;17.69;70.57;100467.38;4991939;28;20422;-77
2021/09/05 02:57:25;;;;;;;13.20;10.03;;;;;;;17.68;70.50;100471.25;4999011;28;20483;-77
2021/09/05 02:59:51;;;;;;;13.27;9.98;;;;;;;17.70;69.70;100467.09;4998833;28;20483;-77
2021/09/05 03:02:16;;;;;;;11.07;9.70;;;;;;;17.62;70.40;100468.53;4995485;28;20406;-77
2021/09/05 03:04:41;;;;;;;10.40;9.30;;;;;;;17.57;70.45;100471.34;4994976;28;20773;-77
2021/09/05 03:07:06;;;;;;;9.57;8.63;;;;;;;17.59;70.54;100479.25;5005042;28;20408;-77
2021/09/05 03:09:32;;;;;;;10.33;9.33;;;;;;;17.56;70.50;100471.63;5015468;28;20414;-77
2021/09/05 03:11:57;;;;;;;10.20;9.13;;;;;;;17.56;70.36;100472.44;4991937;28;20490;-77
2021/09/05 03:14:22;;;;;;;11.23;9.73;;;;;;;17.55;70.44;100473.56;4993324;28;20396;-77
2021/09/05 03:16:48;;;;;;;11.03;9.10;;;;;;;17.56;70.29;100477.94;4999464;28;20764;-77
2021/09/05 03:19:13;;;;;;;10.25;9.25;;;;;;;17.56;70.53;100474.38;5001439;28;20465;-77
2021/09/05 03:21:39;;;;;;;9.57;8.67;;;;;;;17.55;70.42;100472.72;5000722;28;20402;-77
2021/09/05 03:24:05;;;;;;;10.07;9.00;;;;;;;17.52;70.40;100476.84;5007433;28;20419;-77
2021/09/05 03:26:32;;;;;;;12.07;9.30;;;;;;;17.48;70.49;100475.00;5001501;28;20449;-77
2021/09/05 03:28:57;;;;;;;12.93;9.77;;;;;;;17.46;70.68;100475.25;4991685;28;20549;-77
2021/09/05 03:31:23;;;;;;;9.73;8.83;;;;;;;17.47;70.51;100471.44;4993411;28;20860;-77
2021/09/05 03:33:48;;;;;;;10.13;9.10;;;;;;;17.47;70.23;100478.81;5001767;28;20419;-77
2021/09/05 03:36:13;;;;;;;9.57;8.77;;;;;;;17.47;69.25;100487.88;4991296;28;20786;-77
2021/09/05 03:38:39;;;;;;;9.65;8.45;;;;;;;17.46;69.16;100490.88;4991900;28;20425;-77
2021/09/05 03:41:04;;;;;;;9.10;8.20;;;;;;;17.41;68.92;100486.28;4991747;28;20437;-77
2021/09/05 03:43:29;;;;;;;9.43;7.90;;;;;;;17.38;69.38;100489.59;5008026;28;20896;-77
2021/09/05 03:45:54;;;;;;;9.97;9.00;;;;;;;17.38;69.83;100491.53;4998226;28;20499;-77
2021/09/05 03:48:20;;;;;;;11.37;9.07;;;;;;;17.40;70.06;100490.13;5025340;28;20512;-77
2021/09/05 03:50:45;;;;;;;10.60;9.10;;;;;;;17.40;70.21;100495.59;4991249;28;20493;-77
2021/09/05 03:53:10;;;;;;;10.63;9.27;;;;;;;17.43;70.38;100500.50;4991922;28;20402;-77
2021/09/05 03:55:36;;;;;;;10.83;9.00;;;;;;;17.47;70.45;100498.81;5001219;28;20511;-77
2021/09/05 03:58:02;;;;;;;11.00;9.20;;;;;;;17.48;70.47;100497.72;4994762;28;20884;-76
2021/09/05 04:00:28;;;;;;;9.68;8.55;;;;;;;17.50;70.54;100500.16;4993644;28;20407;-77
2021/09/05 04:02:53;;;;;;;11.73;9.40;;;;;;;17.52;70.25;100504.25;5040570;28;20764;-77
2021/09/05 04:05:19;;;;;;;11.90;9.07;;;;;;;17.52;70.18;100503.41;4992875;28;20422;-77
2021/09/05 04:08:00;;;;;;;11.97;8.67;;;;;;;17.52;70.44;100503.41;4998325;28;20430;-77
2021/09/05 04:10:26;;;;;;;8.98;7.93;;;;;;;17.50;69.48;100502.91;5010630;28;20756;-77
2021/09/05 04:12:51;;;;;;;11.03;7.80;;;;;;;17.47;68.75;100503.47;5013058;28;20405;-77
2021/09/05 04:15:16;;;;;;;9.23;8.07;;;;;;;17.41;68.51;100497.25;4996689;28;20401;-77
2021/09/05 04:17:41;;;;;;;10.20;8.23;;;;;;;17.36;68.74;100499.19;4993864;28;20399;-77
2021/09/05 04:20:08;;;;;;;9.07;7.67;;;;;;;17.33;68.89;100511.56;5027588;28;20491;-77
2021/09/05 04:22:34;;;;;;;10.48;8.48;;;;;;;17.29;69.09;100518.72;4999847;28;20508;-77
2021/09/05 04:25:00;;;;;;;16.40;8.13;;;;;;;17.27;69.27;100520.09;4995086;28;20482;-77
2021/09/05 04:27:25;;;;;;;9.98;8.50;;;;;;;17.26;69.84;100512.97;5002526;28;20951;-77
2021/09/05 04:29:51;;;;;;;10.43;9.33;;;;;;;17.24;70.51;100517.94;4995236;28;20489;-77
2021/09/05 04:32:17;;;;;;;11.40;9.03;;;;;;;17.24;70.71;100510.56;5003098;28;20396;-77
2021/09/05 04:34:43;;;;;;;10.00;8.23;;;;;;;17.27;70.85;100518.19;5004260;28;20426;-77
2021/09/05 04:37:08;;;;;;;10.57;9.33;;;;;;;17.29;70.94;100517.91;5007190;28;20421;-77
2021/09/05 04:39:34;;;;;;;13.05;9.07;;;;;;;17.29;70.82;100513.22;5004055;28;20402;-77
2021/09/05 04:41:59;;;;;;;9.73;8.73;;;;;;;17.30;70.57;100520.34;4994322;28;20418;-77
2021/09/05 04:44:25;;;;;;;9.38;8.48;;;;;;;17.26;70.77;100524.75;4996097;28;20465;-77
2021/09/05 04:46:50;;;;;;;9.27;7.93;;;;;;;17.24;70.60;100531.63;5008859;28;20402;-77
2021/09/05 04:49:15;;;;;;;9.67;8.67;;;;;;;17.24;69.99;100534.38;4999371;28;20918;-77
2021/09/05 04:51:40;;;;;;;10.03;8.27;;;;;;;17.21;70.01;100535.78;5000016;28;20406;-77
2021/09/05 04:54:06;;;;;;;12.27;8.50;;;;;;;17.17;70.38;100537.44;4998880;28;20402;-77
2021/09/05 04:56:31;;;;;;;9.17;7.73;;;;;;;17.16;69.84;100549.50;5010551;28;20428;-77
2021/09/05 04:58:56;;;;;;;9.85;8.65;;;;;;;17.15;69.64;100550.63;4995710;28;20406;-77
2021/09/05 05:01:22;;;;;;;9.27;8.37;;;;;;;17.15;69.59;100549.78;4994918;28;20761;-77
2021/09/05 05:03:47;;;;;;;11.10;8.97;;;;;;;17.13;69.26;100561.03;4994107;28;20462;-77
2021/09/05 05:06:12;;;;;;;8.93;7.60;;;;;;;17.12;69.07;100559.41;4995324;28;20411;-77
2021/09/05 05:08:38;;;;;;;8.63;7.30;;;;;;;17.07;68.67;100567.66;5008133;28;20450;-77
2021/09/05 05:11:03;;;;;;;10.67;7.27;;;;;;;17.00;68.67;100558.94;4995027;28;20430;-77
2021/09/05 05:13:29;;;;;;;8.90;7.93;;;;;;;16.92;68.98;100559.56;5017309;28;20832;-77
2021/09/05 05:15:55;;;;;;;8.75;7.68;;;;;;;16.91;69.04;100564.19;5013946;28;20832;-77
2021/09/05 05:18:24;;;;;;;10.27;7.82;;;;;;;16.93;69.21;100563.91;5004625;28;20410;-77
2021/09/05 05:20:49;;;;;;;10.63;8.18;;;;;;;16.95;69.44;100568.00;5007684;28;20408;-77
2021/09/05 05:23:15;;;;;;;11.43;8.13;;;;;;;16.95;69.33;100561.72;5010417;28;20750;-76
2021/09/05 05:25:40;;;;;;;13.30;8.27;;;;;;;16.95;69.29;100565.28;5014756;28;20421;-77
2021/09/05 05:28:06;;;;;;;9.15;7.95;;;;;;;16.95;69.30;100572.66;5001324;28;20423;-77
2021/09/05 05:30:31;;;;;;;8.20;7.40;;;;;;;16.94;69.23;100574.59;5022725;28;20400;-77
2021/09/05 05:32:58;;;;;;;11.68;7.88;;;;;;;16.92;69.30;100584.19;5023676;28;20417;-77
2021/09/05 05:35:24;;;;;;;8.73;7.87;;;;;;;16.89;69.43;100580.06;4998152;28;20419;-77
2021/09/05 05:37:49;;;;;;;10.13;8.57;;;;;;;16.88;69.73;100578.47;4999870;28;20424;-77
2021/09/05 05:40:14;;;;;;;8.23;7.33;;;;;;;16.90;69.79;100572.69;5002037;28;20506;-77
2021/09/05 05:42:40;;;;;;;11.67;7.47;;;;;;;16.89;69.21;100576.53;5003003;28;20424;-77
2021/09/05 05:45:05;;;;;;;10.20;8.07;;;;;;;16.87;69.45;100576.81;5008749;28;20859;-77
2021/09/05 05:47:32;;;;;;;14.33;8.17;;;;;;;16.87;69.35;100584.19;5003346;28;20504;-77
2021/09/05 05:49:57;;;;;;;9.07;7.88;;;;;;;16.86;69.71;100585.31;5006919;28;20874;-77
2021/09/05 05:52:22;;;;;;;8.73;7.90;;;;;;;16.83;69.95;100581.22;5015785;28;20406;-77
2021/09/05 05:54:48;;;;;;;9.27;8.40;;;;;;;16.81;70.29;100588.91;5008209;28;20482;-77
2021/09/05 05:57:13;;;;;;;12.13;8.63;;;;;;;16.81;70.29;100591.63;5006008;28;20478;-77
2021/09/05 05:59:39;;;;;;;8.83;7.93;;;;;;;16.84;70.63;100590.25;5013785;28;20412;-77
2021/09/05 06:02:04;;;;;;;11.50;8.50;;;;;;;16.85;70.66;100592.72;5015041;28;20432;-77
2021/09/05 06:04:29;;;;;;;12.57;8.33;;;;;;;16.88;70.80;100592.16;4999548;28;20398;-77
2021/09/05 06:06:55;;;;;;;15.77;8.57;;;;;;;16.94;70.96;100596.47;5015153;28;20400;-78
2021/09/05 06:09:21;;;;;;;10.53;8.60;;;;;;;17.00;70.77;100595.34;5011538;28;20418;-78
2021/09/05 06:11:46;;;;;;;10.00;7.97;;;;;;;17.09;70.67;100590.91;4984462;28;20408;-78
2021/09/05 06:14:11;;;;;;;12.20;8.23;;;;;;;17.18;70.26;100593.88;5004315;28;20421;-78
2021/09/05 06:16:37;;;;;;;11.67;9.07;;;;;;;17.25;69.86;100601.75;4999343;28;20411;-77
2021/09/05 06:19:02;;;;;;;14.40;8.17;;;;;;;17.31;69.75;100606.91;4993772;28;20422;-77
2021/09/05 06:21:28;;;;;;;11.53;7.77;;;;;;;17.35;69.66;100602.50;4995466;28;20498;-77
2021/09/05 06:23:53;;;;;;;9.60;8.03;;;;;;;17.38;70.26;100601.94;5011848;28;20409;-76
2021/09/05 06:26:18;;;;;;;9.25;8.32;;;;;;;17.41;70.05;100606.84;5014537;28;20755;-77
2021/09/05 06:28:44;;;;;;;9.67;8.57;;;;;;;17.44;70.48;100613.66;5013764;28;20423;-76
2021/09/05 06:31:10;;;;;;;9.30;8.40;;;;;;;17.46;70.54;100615.00;5000257;28;20413;-77
2021/09/05 06:33:35;;;;;;;10.23;8.75;;;;;;;17.47;70.59;100613.06;5001676;28;20422;-76
2021/09/05 06:36:00;;;;;;;10.50;8.30;;;;;;;17.50;70.57;100607.84;5004822;28;20491;-75
2021/09/05 06:38:26;;;;;;;8.93;8.03;;;;;;;17.53;70.52;100610.00;5024551;28;20390;-76
2021/09/05 06:40:51;;;;;;;13.10;9.32;;;;;;;17.58;70.52;100612.72;4998024;28;20898;-77
2021/09/05 06:43:16;;;;;;;10.37;9.20;;;;;;;17.66;70.44;100614.03;5010146;28;20405;-76
2021/09/05 06:45:42;;;;;;;8.82;8.02;;;;;;;17.75;70.74;100619.72;5010335;28;20404;-76
2021/09/05 06:48:08;;;;;;;12.93;8.90;;;;;;;17.81;70.58;100633.09;5005556;28;20511;-77
2021/09/05 06:50:33;;;;;;;10.03;9.10;;;;;;;17.85;70.66;100627.88;4993040;28;20907;-77
2021/09/05 06:52:59;;;;;;;9.33;8.40;;;;;;;17.89;70.40;100628.91;5003427;28;20399;-76
2021/09/05 06:55:25;;;;;;;10.53;9.17;;;;;;;17.90;70.33;100630.53;5002360;28;20410;-77
2021/09/05 06:57:50;;;;;;;10.75;9.02;;;;;;;17.91;70.37;100629.44;4996193;28;20414;-76
2021/09/05 07:00:15;;;;;;;10.47;9.37;;;;;;;17.91;70.36;100641.22;5002120;28;20758;-76
2021/09/05 07:02:41;;;;;;;10.85;8.98;;;;;;;17.91;70.94;100630.25;4999620;28;20563;-76
2021/09/05 07:05:07;;;;;;;13.20;9.00;;;;;;;17.96;70.94;100635.69;5000723;28;20476;-76
2021/09/05 07:07:32;;;;;;;10.15;9.15;;;;;;;17.99;70.98;100646.06;4991043;28;20754;-76
2021/09/05 07:09:57;;;;;;;9.77;8.77;;;;;;;18.01;70.85;100641.09;4995367;28;20414;-76
2021/09/05 07:12:22;;;;;;;10.60;9.45;;;;;;;18.09;70.77;100639.66;5004589;28;20872;-76
2021/09/05 07:14:48;;;;;;;10.40;9.43;;;;;;;18.17;70.20;100643.72;5018159;28;20830;-77
2021/09/05 07:17:13;;;;;;;9.57;8.60;;;;;;;18.28;70.11;100643.28;4996979;28;20413;-76
2021/09/05 07:19:40;;;;;;;8.93;8.10;;;;;;;18.43;68.98;100637.66;5005259;28;20438;-76
2021/09/05 07:22:05;;;;;;;8.73;7.82;;;;;;;18.59;67.82;100641.06;5010843;28;20421;-76
2021/09/05 07:24:31;;;;;;;8.77;7.85;;;;;;;18.73;66.97;100646.66;5009335;28;20403;-76
2021/09/05 07:26:56;;;;;;;8.40;7.60;;;;;;;18.82;66.10;100647.63;4995942;28;20985;-76
2021/09/05 07:29:22;;;;;;;9.10;8.07;;;;;;;18.93;66.09;100660.94;4995806;28;22083;-75
2021/09/05 07:31:47;;;;;;;10.30;8.25;;;;;;;18.99;65.88;100653.44;4995662;28;20410;-76
2021/09/05 07:34:12;;;;;;;10.40;8.40;;;;;;;19.04;65.79;100662.41;4998200;28;20412;-76
2021/09/05 07:36:38;;;;;;;8.93;7.70;;;;;;;19.05;65.85;100658.56;4998181;28;20450;-76
2021/09/05 07:39:04;;;;;;;8.80;7.90;;;;;;;18.99;65.49;100667.16;4991306;28;20940;-76
2021/09/05 07:41:31;;;;;;;8.80;7.35;;;;;;;18.94;65.40;100659.81;4992046;28;20713;-76
2021/09/05 07:43:56;;;;;;;8.20;7.40;;;;;;;18.91;65.66;100668.63;5011727;28;20415;-76
2021/09/05 07:46:21;;;;;;;8.20;7.40;;;;;;;18.90;65.60;100660.69;5006826;28;20401;-76
2021/09/05 07:48:47;;;;;;;9.53;7.77;;;;;;;18.89;66.01;100664.56;4995871;28;20444;-76
2021/09/05 07:51:12;;;;;;;9.00;8.10;;;;;;;18.90;66.71;100663.44;4994989;28;20416;-76
2021/09/05 07:53:37;;;;;;;10.17;7.50;;;;;;;18.88;65.96;100669.22;4999343;28;20408;-76
2021/09/05 07:56:03;;;;;;;8.90;7.38;;;;;;;18.89;66.90;100664.56;5002004;28;20520;-76
2021/09/05 07:58:28;;;;;;;9.57;8.67;;;;;;;18.91;67.24;100665.06;5003445;28;20427;-76
2021/09/05 08:00:55;;;;;;;10.97;8.30;;;;;;;18.94;67.53;100665.28;5004805;28;20504;-76
2021/09/05 08:03:20;;;;;;;9.40;8.20;;;;;;;18.98;67.20;100668.28;5002666;28;20442;-76
2021/09/05 08:05:46;;;;;;;8.90;8.10;;;;;;;19.06;67.44;100673.13;5002864;28;20454;-76
2021/09/05 08:08:11;;;;;;;9.43;8.10;;;;;;;19.12;66.82;100682.91;4999218;28;20431;-76
2021/09/05 08:10:38;;;;;;;11.43;8.77;;;;;;;19.15;66.16;100669.41;5000229;28;20987;-76
2021/09/05 08:13:03;;;;;;;9.23;7.90;;;;;;;19.23;66.83;100673.44;5002591;28;20907;-76
2021/09/05 08:15:29;;;;;;;9.32;8.43;;;;;;;19.29;66.21;100668.66;5003183;28;20411;-76
2021/09/05 08:17:54;;;;;;;8.73;7.93;;;;;;;19.29;66.27;100677.72;4999875;28;20511;-76
2021/09/05 08:20:20;;;;;;;8.37;7.47;;;;;;;19.26;66.09;100680.25;5016816;28;20423;-76
2021/09/05 08:22:46;;;;;;;9.70;7.70;;;;;;;19.32;65.90;100679.88;4996292;28;20410;-76
2021/09/05 08:25:13;;;;;;;10.38;8.15;;;;;;;19.39;66.13;100682.25;4999404;28;20395;-77
2021/09/05 08:27:39;;;;;;;9.45;7.88;;;;;;;19.43;65.81;100686.88;5024895;28;20457;-77
2021/09/05 08:30:05;;;;;;;11.82;9.25;;;;;;;19.48;65.87;100691.47;4994816;28;20414;-76
2021/09/05 08:32:30;;;;;;;8.52;7.05;;;;;;;19.51;65.76;100686.22;5020465;28;20959;-77
2021/09/05 08:34:55;;;;;;;8.20;7.50;;;;;;;19.60;65.85;100689.91;5013180;28;20416;-77
2021/09/05 08:37:21;;;;;;;8.33;7.50;;;;;;;19.71;65.53;100689.75;5019781;28;20409;-76
2021/09/05 08:39:46;;;;;;;9.95;7.68;;;;;;;19.79;65.21;100689.09;5004826;28;20427;-76
2021/09/05 08:42:11;;;;;;;8.63;7.73;;;;;;;19.84;65.25;100694.47;5002115;28;20393;-77
2021/09/05 08:44:36;;;;;;;9.03;7.67;;;;;;;19.88;65.58;100690.84;5013287;28;20428;-76
2021/09/05 08:47:02;;;;;;;8.23;7.23;;;;;;;19.99;65.49;100694.25;5013372;28;20960;-77
2021/09/05 08:49:33;;;;;;;11.57;7.85;;;;;;;20.18;64.69;100697.75;5009666;28;20417;-78
2021/09/05 08:51:59;;;;;;;9.68;7.22;;;;;;;20.32;64.43;100689.56;5001936;28;20473;-77
2021/09/05 08:54:24;;;;;;;12.38;8.02;;;;;;;20.46;64.50;100690.34;4996683;28;20885;-77
2021/09/05 08:56:52;;;;;;;8.87;8.00;;;;;;;20.62;63.93;100691.69;5004046;28;20901;-76
2021/09/05 08:59:17;;;;;;;8.95;7.85;;;;;;;20.77;63.53;100699.66;4994160;28;20816;-77
2021/09/05 09:01:57;;;;;;;11.15;7.88;;;;;;;20.89;62.42;100696.38;5014117;28;20416;-76
2021/09/05 09:04:23;;;;;;;9.68;7.28;;;;;;;20.99;62.28;100696.16;5001480;28;20402;-76
2021/09/05 09:06:48;;;;;;;7.97;7.22;;;;;;;21.31;61.50;100695.19;5007004;28;20386;-76
2021/09/05 09:09:14;;;;;;;8.43;7.63;;;;;;;21.45;61.10;100695.97;4994379;28;20422;-76
2021/09/05 09:11:56;;;;;;;8.67;7.90;;;;;;;21.50;60.38;100695.88;5013100;28;20410;-76
2021/09/05 09:14:40;;;;;;;8.07;7.30;;;;;;;21.77;59.44;100693.00;5006108;28;20408;-76
2021/09/05 09:17:05;;;;;;;8.57;7.53;;;;;;;21.86;59.86;100699.41;5011296;28;20401;-76
2021/09/05 09:19:30;;;;;;;8.60;7.80;;;;;;;21.99;59.55;100692.22;5012510;28;20427;-76
2021/09/05 09:21:56;;;;;;;8.10;7.30;;;;;;;22.27;58.58;100693.66;4997248;28;20402;-76
2021/09/05 09:24:23;;;;;;;8.07;6.95;;;;;;;22.77;56.55;100697.00;5005147;28;20888;-76
2021/09/05 09:27:01;;;;;;;7.43;6.67;;;;;;;24.00;52.61;100690.13;4999001;28;20407;-76
2021/09/05 09:29:26;;;;;;;7.90;6.50;;;;;;;24.75;49.93;100689.41;5007570;28;20902;-76
2021/09/05 09:32:01;;;;;;;8.40;6.70;;;;;;;24.37;50.71;100686.59;4997220;28;20408;-76
2021/09/05 09:34:27;;;;;;;7.75;7.05;;;;;;;24.26;50.97;100680.63;5005264;28;20445;-76
2021/09/05 09:36:57;;;;;;;8.13;7.13;;;;;;;24.52;50.51;100686.06;4998697;28;20805;-76
2021/09/05 09:39:22;;;;;;;8.57;7.53;;;;;;;24.69;49.58;100693.50;4992704;28;20430;-76
2021/09/05 09:41:48;;;;;;;7.93;7.10;;;;;;;25.16;48.45;100683.16;5010669;28;20403;-76
2021/09/05 09:44:14;;;;;;;6.93;6.27;;;;;;;25.89;48.05;100683.53;5005504;28;20391;-77
2021/09/05 09:46:42;;;;;;;11.18;6.80;;;;;;;26.84;45.32;100686.06;5004814;28;21079;-76
2021/09/05 09:49:09;;;;;;;7.13;6.43;;;;;;;27.07;44.57;100685.22;5000041;28;20906;-77
2021/09/05 09:51:36;;;;;;;7.15;6.13;;;;;;;27.18;44.60;100672.47;4994864;28;20412;-77
2021/09/05 09:54:02;;;;;;;8.27;6.50;;;;;;;27.43;44.54;100678.78;4993419;28;20399;-76
2021/09/05 09:56:28;;;;;;;6.68;6.18;;;;;;;27.95;43.01;100681.50;4993236;28;20505;-77
2021/09/05 09:59:06;;;;;;;6.07;5.60;;;;;;;28.48;41.96;100674.59;4997734;28;20415;-77
2021/09/05 10:01:33;;;;;;;6.53;5.85;;;;;;;28.57;42.02;100672.41;4997070;28;20454;-77
2021/09/05 10:04:00;;;;;;;6.75;6.15;;;;;;;28.58;41.72;100670.44;4993324;28;20387;-77
2021/09/05 10:06:31;;;;;;;6.38;5.40;;;;;;;29.02;41.02;100676.69;5004078;28;20403;-77
2021/09/05 10:09:05;;;;;;;7.53;5.85;;;;;;;29.48;39.44;100674.94;5007724;28;20497;-77
2021/09/05 10:11:32;;;;;;;6.30;5.80;;;;;;;29.64;39.09;100664.53;4994614;28;20402;-77
2021/09/05 10:13:58;;;;;;;6.35;5.85;;;;;;;29.90;38.74;100664.69;5003315;28;20446;-76
2021/09/05 10:16:24;;;;;;;8.40;6.15;;;;;;;30.47;37.61;100674.13;4992180;28;20442;-77
2021/09/05 10:18:53;;;;;;;6.28;5.82;;;;;;;31.06;35.98;100677.09;4994257;28;20415;-77
2021/09/05 10:21:20;;;;;;;6.00;5.50;;;;;;;31.56;35.33;100677.81;4997639;28;20460;-77
2021/09/05 10:23:54;;;;;;;5.68;5.28;;;;;;;31.96;35.26;100669.47;5002008;28;20399;-77
2021/09/05 10:26:21;;;;;;;5.68;5.28;;;;;;;32.98;33.06;100671.63;5006005;28;20400;-77
2021/09/05 10:28:51;;;;;;;6.25;5.78;;;;;;;34.16;30.83;100666.16;5004272;28;20477;-77
2021/09/05 10:31:31;;;;;;;6.32;5.78;;;;;;;35.14;28.78;100673.03;4998141;28;20488;-77
2021/09/05 10:33:58;;;;;;;6.22;5.80;;;;;;;35.89;27.96;100677.19;5004566;28;20757;-78
2021/09/05 10:36:25;;;;;;;6.13;5.63;;;;;;;36.58;26.81;100665.88;4994978;28;20402;-77
2021/09/05 10:39:11;;;;;;;5.93;5.53;;;;;;;36.88;26.85;100668.78;4992893;28;21120;-77
2021/09/05 10:41:50;;;;;;;6.38;5.78;;;;;;;37.37;25.46;100669.53;4992458;28;20464;-77
2021/09/05 10:44:16;;;;;;;6.20;5.68;;;;;;;37.51;25.31;100666.53;5007085;28;20397;-77
2021/09/05 10:46:45;;;;;;;5.83;5.33;;;;;;;37.32;25.54;100664.31;4996226;28;20411;-77
2021/09/05 10:49:10;;;;;;;6.25;5.63;;;;;;;37.47;25.03;100668.63;5007230;28;20435;-77
2021/09/05 10:51:41;;;;;;;7.07;5.40;;;;;;;37.52;25.61;100673.00;5006623;28;20485;-77
2021/09/05 10:54:27;;;;;;;6.90;6.30;;;;;;;37.56;25.06;100671.72;5008457;28;20487;-77
2021/09/05 10:56:55;;;;;;;6.97;6.25;;;;;;;37.16;25.40;100678.22;4992274;28;20497;-77
2021/09/05 10:59:22;;;;;;;6.50;5.83;;;;;;;36.89;26.35;100669.59;4993549;28;20504;-77
2021/09/05 11:01:47;;;;;;;6.95;6.18;;;;;;;37.21;26.13;100663.66;4992455;28;20406;-77
2021/09/05 11:04:14;;;;;;;6.53;6.03;;;;;;;37.17;26.28;100660.88;4992164;28;20482;-77
2021/09/05 11:06:43;;;;;;;6.90;6.20;;;;;;;36.89;26.78;100661.94;4996027;28;20441;-77
2021/09/05 11:09:17;;;;;;;6.80;6.05;;;;;;;36.60;27.95;100666.25;4994923;28;21136;-77
2021/09/05 11:12:04;;;;;;;7.70;6.65;;;;;;;35.98;28.62;100660.59;5007299;28;20476;-77
2021/09/05 11:14:35;;;;;;;7.97;6.83;;;;;;;35.01;29.93;100658.53;4997868;28;20397;-77
2021/09/05 11:17:01;;;;;;;7.05;6.45;;;;;;;34.26;31.42;100656.94;5010890;28;20401;-78